Time;durP1;ratioP1;P1;durP2;ratioP2;P2;SDS_P1;SDS_P2;PMS_P1;PMS_P2;Temp;Humidity;BMP_temperature;BMP_pressure;BME280_temperature;BME280_humidity;BME280_pressure;Samples;Min_cycle;Max_cycle;Signal;HPM_P1;HPM_P2
2021/06/18 00:01:59;;;;;;;7.87;7.27;;;;;;;24.82;68.87;96078.59;5113714;28;20684;-56
2021/06/18 00:04:24;;;;;;;7.67;7.07;;;;;;;24.77;68.46;96078.75;5114064;28;20185;-56
2021/06/18 00:06:49;;;;;;;8.20;7.60;;;;;;;24.73;68.54;96081.28;5111006;28;20192;-56
2021/06/18 00:09:15;;;;;;;7.40;6.90;;;;;;;24.69;68.49;96074.97;5107059;28;20643;-56
2021/06/18 00:11:41;;;;;;;7.83;7.00;;;;;;;24.67;68.72;96066.44;5113497;28;20264;-55
2021/06/18 00:14:07;;;;;;;7.57;7.07;;;;;;;24.69;69.10;96064.22;5113733;28;20250;-55
2021/06/18 00:16:33;;;;;;;7.97;7.27;;;;;;;24.64;68.86;96079.72;5113917;28;20433;-55
2021/06/18 00:18:58;;;;;;;7.30;6.70;;;;;;;24.58;68.34;96075.63;5114105;28;20213;-56
2021/06/18 00:21:24;;;;;;;7.50;6.90;;;;;;;24.51;68.32;96072.66;5113815;28;20438;-56
2021/06/18 00:23:49;;;;;;;7.10;6.50;;;;;;;24.48;67.66;96082.13;5101928;28;20273;-55
2021/06/18 00:26:15;;;;;;;7.33;6.63;;;;;;;24.48;68.30;96073.31;5093559;28;20176;-55
2021/06/18 00:28:42;;;;;;;7.87;7.27;;;;;;;24.47;68.81;96072.50;5093462;28;20553;-56
2021/06/18 00:31:08;;;;;;;7.87;7.17;;;;;;;24.48;69.38;96073.31;5093374;28;20200;-55
2021/06/18 00:33:33;;;;;;;7.20;6.63;;;;;;;24.43;69.27;96080.41;5093043;28;20423;-56
2021/06/18 00:35:59;;;;;;;7.90;7.30;;;;;;;24.46;68.96;96076.28;5093686;28;20894;-56
2021/06/18 00:38:24;;;;;;;7.70;7.00;;;;;;;24.42;68.94;96080.75;5103671;28;20272;-55
2021/06/18 00:40:50;;;;;;;7.63;7.10;;;;;;;24.35;69.03;96078.53;5113634;28;20203;-55
2021/06/18 00:43:15;;;;;;;7.97;7.37;;;;;;;24.26;69.67;96077.75;5113264;28;20211;-55
2021/06/18 00:45:41;;;;;;;8.13;7.47;;;;;;;24.25;69.54;96081.56;5112650;28;20169;-55
2021/06/18 00:48:07;;;;;;;7.20;6.70;;;;;;;24.29;69.51;96084.41;5093555;28;20174;-56
2021/06/18 00:50:33;;;;;;;9.67;7.30;;;;;;;24.19;69.58;96080.16;5093457;28;20540;-55
2021/06/18 00:52:59;;;;;;;7.40;6.70;;;;;;;24.00;68.62;96082.41;5111126;28;20889;-55
2021/06/18 00:55:25;;;;;;;7.27;6.77;;;;;;;23.88;69.07;96081.44;5100905;28;20493;-55
2021/06/18 00:57:52;;;;;;;8.30;7.50;;;;;;;23.90;69.61;96074.63;5095477;28;20170;-56
2021/06/18 01:00:19;;;;;;;7.40;6.90;;;;;;;23.91;70.03;96081.59;5113681;28;20415;-55
2021/06/18 01:02:44;;;;;;;7.93;7.30;;;;;;;23.89;70.22;96077.63;5113104;28;20928;-55
2021/06/18 01:05:13;;;;;;;8.20;7.40;;;;;;;23.86;70.05;96083.63;5113428;28;20549;-56
2021/06/18 01:07:52;;;;;;;8.07;7.37;;;;;;;23.83;69.82;96079.69;5113680;28;20176;-55
2021/06/18 01:10:31;;;;;;;7.23;6.63;;;;;;;23.79;69.60;96083.31;5108165;28;20818;-55
2021/06/18 01:13:02;;;;;;;8.13;7.30;;;;;;;23.71;68.52;96086.78;5111556;28;20437;-56
2021/06/18 01:15:33;;;;;;;7.50;6.70;;;;;;;23.59;67.56;96092.75;5113441;28;20933;-55
2021/06/18 01:18:05;;;;;;;7.60;6.50;;;;;;;23.52;67.38;96097.03;5113418;28;20949;-55
2021/06/18 01:21:01;;;;;;;6.70;6.20;;;;;;;23.51;67.27;96106.97;5113391;28;20407;-56
2021/06/18 01:23:29;;;;;;;7.10;6.67;;;;;;;23.51;67.00;96098.94;5113698;28;20427;-56
2021/06/18 01:26:23;;;;;;;6.37;5.83;;;;;;;23.54;67.32;96100.16;5113206;28;20431;-55
2021/06/18 01:28:52;;;;;;;7.20;6.60;;;;;;;23.56;67.32;96104.13;5096822;28;20396;-55
2021/06/18 01:31:20;;;;;;;6.50;6.00;;;;;;;23.58;67.30;96093.09;5096665;28;20441;-56
2021/06/18 01:33:50;;;;;;;6.80;6.30;;;;;;;23.59;67.88;96089.31;5096042;28;20492;-55
2021/06/18 01:36:16;;;;;;;6.70;6.10;;;;;;;23.60;68.24;96091.69;5096562;28;20415;-56
2021/06/18 01:38:45;;;;;;;6.93;6.33;;;;;;;23.56;68.74;96090.72;5096563;28;20480;-56
2021/06/18 01:41:24;;;;;;;7.30;6.80;;;;;;;23.55;69.09;96093.72;5104653;28;20503;-55
2021/06/18 01:43:53;;;;;;;7.30;6.70;;;;;;;23.59;68.81;96089.31;5116758;28;20500;-56
2021/06/18 01:46:22;;;;;;;6.83;6.23;;;;;;;23.55;68.14;96099.88;5116706;27;20464;-55
2021/06/18 01:48:52;;;;;;;7.07;6.57;;;;;;;23.48;68.47;96093.41;5116808;27;20461;-56
2021/06/18 01:51:19;;;;;;;6.83;6.23;;;;;;;23.46;68.01;96091.81;5116832;28;20490;-55
2021/06/18 01:53:47;;;;;;;6.60;6.13;;;;;;;23.46;67.78;96099.09;5116243;28;20802;-56
2021/06/18 01:56:16;;;;;;;6.60;6.10;;;;;;;23.42;67.52;96098.13;5105217;28;21031;-55
2021/06/18 01:58:44;;;;;;;6.90;6.30;;;;;;;23.41;67.12;96099.22;5105479;28;20451;-55
2021/06/18 02:01:13;;;;;;;6.40;5.90;;;;;;;23.32;66.91;96095.72;5113830;28;20503;-55
2021/06/18 02:03:41;;;;;;;6.63;6.13;;;;;;;23.32;67.79;96090.34;5098832;28;20432;-56
2021/06/18 02:06:08;;;;;;;6.40;6.00;;;;;;;23.32;67.89;96093.03;5116573;28;20399;-55
2021/06/18 02:08:33;;;;;;;7.37;5.73;;;;;;;23.26;67.94;96086.22;5116387;28;20403;-55
2021/06/18 02:11:01;;;;;;;6.73;6.20;;;;;;;23.25;68.19;96081.94;5116273;28;20901;-56
2021/06/18 02:13:32;;;;;;;6.37;5.87;;;;;;;23.22;68.41;96088.75;5116075;28;20292;-56
2021/06/18 02:15:59;;;;;;;6.97;6.37;;;;;;;23.19;68.71;96086.66;5116242;28;20898;-56
2021/06/18 02:18:27;;;;;;;6.90;6.30;;;;;;;23.17;68.40;96083.50;5106377;28;20949;-56
2021/06/18 02:20:57;;;;;;;7.70;6.10;;;;;;;23.14;68.92;96080.66;5109111;28;20557;-55
2021/06/18 02:23:27;;;;;;;6.47;5.97;;;;;;;23.16;68.71;96078.47;5115737;28;20430;-55
2021/06/18 02:25:52;;;;;;;6.97;6.17;;;;;;;23.20;67.81;96076.75;5105588;28;20420;-55
2021/06/18 02:28:20;;;;;;;7.37;6.70;;;;;;;23.21;67.58;96073.75;5095579;28;20416;-56
2021/06/18 02:30:46;;;;;;;6.40;5.90;;;;;;;23.14;68.73;96072.63;5095786;28;20166;-55
2021/06/18 02:33:12;;;;;;;6.80;6.30;;;;;;;23.14;69.38;96065.38;5095237;28;21005;-56
2021/06/18 02:35:42;;;;;;;6.83;6.30;;;;;;;23.17;69.46;96075.47;5094676;28;20910;-56
2021/06/18 02:38:09;;;;;;;6.77;6.30;;;;;;;23.13;69.70;96068.38;5095216;28;20463;-55
2021/06/18 02:40:35;;;;;;;8.50;6.77;;;;;;;23.16;69.38;96068.53;5104349;28;20480;-56
2021/06/18 02:43:01;;;;;;;7.40;6.50;;;;;;;23.17;69.48;96067.41;5114334;28;20407;-55
2021/06/18 02:45:26;;;;;;;7.40;6.90;;;;;;;23.19;69.33;96067.91;5115676;28;20410;-56
2021/06/18 02:48:07;;;;;;;7.70;7.13;;;;;;;23.12;69.76;96067.56;5115647;28;20165;-55
2021/06/18 02:50:50;;;;;;;6.90;6.40;;;;;;;23.11;70.15;96065.22;5115524;27;20181;-55
2021/06/18 02:53:25;;;;;;;7.57;6.87;;;;;;;23.10;70.74;96067.09;5115081;28;20507;-56
2021/06/18 02:55:57;;;;;;;6.83;6.20;;;;;;;23.09;70.83;96072.78;5100600;28;20423;-55
2021/06/18 02:58:32;;;;;;;6.70;6.20;;;;;;;23.01;69.34;96095.78;5101770;28;20450;-56
2021/06/18 03:01:02;;;;;;;7.73;7.07;;;;;;;22.49;70.33;96123.41;5115317;28;20407;-55
2021/06/18 03:03:42;;;;;;;8.90;7.07;;;;;;;22.33;70.24;96120.34;5115362;28;20798;-56
2021/06/18 03:06:11;;;;;;;10.47;7.33;;;;;;;22.42;69.75;96118.50;5115127;28;20414;-55
2021/06/18 03:08:41;;;;;;;7.83;7.13;;;;;;;22.52;69.25;96120.91;5115221;28;20483;-55
2021/06/18 03:11:09;;;;;;;6.70;6.30;;;;;;;22.66;69.14;96115.50;5114458;28;20419;-56
2021/06/18 03:13:38;;;;;;;7.67;7.07;;;;;;;22.75;68.95;96113.66;5114518;28;20510;-56
2021/06/18 03:16:05;;;;;;;7.23;6.63;;;;;;;22.81;68.19;96133.06;5115214;28;20456;-55
2021/06/18 03:18:32;;;;;;;7.23;6.53;;;;;;;22.87;67.99;96129.94;5115143;28;20462;-55
2021/06/18 03:21:01;;;;;;;7.77;7.13;;;;;;;22.93;68.91;96130.59;5115178;28;20437;-55
2021/06/18 03:23:27;;;;;;;8.03;7.27;;;;;;;22.99;68.77;96121.31;5114471;28;20449;-55
2021/06/18 03:25:53;;;;;;;7.63;7.03;;;;;;;23.05;68.96;96128.09;5104362;28;20837;-55
2021/06/18 03:28:23;;;;;;;8.37;7.57;;;;;;;23.09;69.19;96124.50;5114597;28;20518;-56
2021/06/18 03:30:50;;;;;;;7.67;6.97;;;;;;;22.95;67.46;96139.91;5114730;28;20874;-56
2021/06/18 03:33:17;;;;;;;7.70;7.10;;;;;;;23.00;67.90;96133.63;5103777;28;20443;-56
2021/06/18 03:35:43;;;;;;;7.37;6.87;;;;;;;23.02;68.77;96137.56;5094258;28;20947;-55
2021/06/18 03:38:10;;;;;;;7.70;7.10;;;;;;;23.07;69.53;96136.63;5094271;28;20456;-57
2021/06/18 03:40:38;;;;;;;8.70;7.87;;;;;;;23.07;70.21;96137.44;5094398;28;20419;-56
2021/06/18 03:43:03;;;;;;;7.30;6.80;;;;;;;23.15;70.43;96138.56;5094171;28;20432;-56
2021/06/18 03:45:29;;;;;;;8.73;7.97;;;;;;;23.18;70.56;96144.09;5094193;28;21021;-55
2021/06/18 03:47:57;;;;;;;7.40;6.90;;;;;;;23.19;69.92;96144.91;5109779;28;20178;-56
2021/06/18 03:50:24;;;;;;;7.33;6.73;;;;;;;23.22;69.67;96146.94;5114448;28;20407;-55
2021/06/18 03:52:50;;;;;;;7.70;7.03;;;;;;;23.22;70.19;96150.44;5114122;28;20489;-56
2021/06/18 03:55:15;;;;;;;7.80;7.20;;;;;;;23.25;70.38;96143.63;5114227;28;20549;-55
2021/06/18 03:57:47;;;;;;;7.70;7.00;;;;;;;23.27;70.70;96138.75;5114370;28;20889;-56
2021/06/18 04:00:14;;;;;;;8.60;7.77;;;;;;;23.22;71.15;96134.34;5114402;28;20649;-54
2021/06/18 04:02:39;;;;;;;7.30;6.67;;;;;;;23.23;71.20;96133.22;5113188;28;20430;-55
2021/06/18 04:05:07;;;;;;;7.77;7.20;;;;;;;23.25;71.26;96136.38;5114064;28;20495;-55
2021/06/18 04:07:33;;;;;;;7.87;7.17;;;;;;;23.28;71.33;96138.44;5114386;28;20256;-55
2021/06/18 04:10:01;;;;;;;8.23;7.57;;;;;;;23.26;70.82;96135.28;5114279;28;20411;-56
2021/06/18 04:12:26;;;;;;;7.17;6.47;;;;;;;23.15;68.86;96134.00;5095553;28;20902;-56
2021/06/18 04:14:53;;;;;;;7.00;6.40;;;;;;;23.17;68.48;96147.09;5093575;28;20486;-55
2021/06/18 04:17:18;;;;;;;7.67;7.00;;;;;;;23.10;67.83;96141.41;5093732;28;20178;-56
2021/06/18 04:19:44;;;;;;;7.40;6.87;;;;;;;23.11;67.39;96141.09;5093544;28;20964;-56
2021/06/18 04:22:14;;;;;;;7.47;6.87;;;;;;;23.23;67.74;96145.84;5093185;28;20174;-55
2021/06/18 04:24:39;;;;;;;7.33;6.63;;;;;;;23.32;67.70;96147.47;5093419;28;20957;-55
2021/06/18 04:27:05;;;;;;;6.83;6.40;;;;;;;23.44;67.70;96144.97;5110142;28;20454;-56
2021/06/18 04:29:30;;;;;;;7.53;7.03;;;;;;;23.55;67.62;96150.06;5113784;28;20192;-55
2021/06/18 04:31:56;;;;;;;7.27;6.57;;;;;;;23.61;68.25;96148.81;5113564;28;20218;-56
2021/06/18 04:34:21;;;;;;;6.57;6.00;;;;;;;23.68;68.10;96149.91;5113767;28;20195;-55
2021/06/18 04:36:47;;;;;;;7.67;6.97;;;;;;;23.76;68.92;96151.03;5110804;28;20244;-56
2021/06/18 04:39:12;;;;;;;7.37;6.60;;;;;;;23.76;68.44;96154.53;5107684;28;20242;-55
2021/06/18 04:41:38;;;;;;;7.10;6.60;;;;;;;23.75;67.12;96169.03;5096273;28;20656;-56
2021/06/18 04:44:04;;;;;;;7.10;6.60;;;;;;;23.63;66.38;96168.06;5093198;28;20223;-56
2021/06/18 04:46:30;;;;;;;7.70;7.10;;;;;;;23.74;67.45;96170.16;5093377;28;20173;-56
2021/06/18 04:48:56;;;;;;;7.70;7.00;;;;;;;23.84;67.82;96179.78;5093408;28;20409;-56
2021/06/18 04:51:21;;;;;;;7.20;6.70;;;;;;;23.89;68.71;96176.94;5093384;28;20408;-56
2021/06/18 04:53:47;;;;;;;6.90;6.40;;;;;;;23.92;67.82;96181.69;5092737;28;20186;-56
2021/06/18 04:56:13;;;;;;;7.70;7.10;;;;;;;23.99;67.80;96182.00;5095564;28;20541;-55
2021/06/18 04:58:38;;;;;;;6.43;5.93;;;;;;;24.08;68.03;96185.50;5103436;28;20193;-56
2021/06/18 05:01:07;;;;;;;6.90;6.40;;;;;;;24.14;68.26;96187.75;5117651;28;20165;-56
2021/06/18 05:03:33;;;;;;;6.30;5.90;;;;;;;24.17;68.13;96191.69;5117314;28;20192;-56
2021/06/18 05:05:58;;;;;;;6.93;6.37;;;;;;;24.10;67.19;96194.84;5117468;28;20403;-56
2021/06/18 05:08:24;;;;;;;6.40;5.90;;;;;;;24.20;66.93;96189.19;5117508;28;20498;-56
2021/06/18 05:10:50;;;;;;;6.50;6.10;;;;;;;24.18;66.58;96186.00;5116795;28;20222;-56
2021/06/18 05:13:15;;;;;;;6.87;6.17;;;;;;;24.09;64.76;96177.16;5117141;28;20193;-55
2021/06/18 05:15:41;;;;;;;6.23;5.73;;;;;;;24.13;63.96;96175.41;5117643;28;20407;-55
2021/06/18 05:18:06;;;;;;;6.07;5.67;;;;;;;24.23;64.33;96177.78;5117564;28;20587;-55
2021/06/18 05:20:31;;;;;;;5.70;5.20;;;;;;;24.25;64.51;96175.59;5116884;27;20161;-56
2021/06/18 05:22:57;;;;;;;6.57;6.17;;;;;;;24.24;63.71;96174.00;5096442;28;20197;-56
2021/06/18 05:25:22;;;;;;;7.33;5.87;;;;;;;24.16;63.54;96168.63;5112029;28;20219;-55
2021/06/18 05:27:48;;;;;;;5.40;5.00;;;;;;;24.29;64.17;96165.78;5117234;27;20196;-55
2021/06/18 05:30:15;;;;;;;6.27;5.77;;;;;;;24.43;63.68;96169.09;5117282;28;20264;-57
2021/06/18 05:32:40;;;;;;;5.93;5.27;;;;;;;24.39;62.56;96168.13;5116656;28;20170;-56
2021/06/18 05:35:06;;;;;;;6.47;5.97;;;;;;;24.34;62.62;96172.88;5116884;28;20438;-56
2021/06/18 05:37:32;;;;;;;8.30;5.93;;;;;;;24.30;62.18;96172.72;5116857;28;20169;-56
2021/06/18 05:39:57;;;;;;;6.20;5.73;;;;;;;24.44;61.69;96164.50;5103081;28;20451;-56
2021/06/18 05:42:23;;;;;;;6.77;6.07;;;;;;;24.27;61.60;96170.69;5096248;28;20174;-56
2021/06/18 05:44:48;;;;;;;7.23;5.27;;;;;;;24.44;62.58;96169.88;5096413;28;20201;-57
2021/06/18 05:47:13;;;;;;;5.77;5.30;;;;;;;24.62;62.09;96174.13;5096572;28;20170;-55
2021/06/18 05:49:39;;;;;;;5.73;5.33;;;;;;;24.78;62.01;96183.28;5096260;28;20247;-56
2021/06/18 05:52:04;;;;;;;6.57;6.07;;;;;;;24.86;61.52;96170.91;5095876;28;20208;-56
2021/06/18 05:54:30;;;;;;;5.30;4.90;;;;;;;24.94;61.16;96170.91;5098901;28;20207;-56
2021/06/18 05:56:55;;;;;;;5.00;4.60;;;;;;;24.89;61.55;96181.06;5112538;28;20632;-56
2021/06/18 05:59:20;;;;;;;5.23;4.93;;;;;;;24.92;62.08;96180.41;5111025;28;20197;-56
2021/06/18 06:01:46;;;;;;;6.30;5.43;;;;;;;25.10;61.77;96182.72;5116298;28;20180;-56
2021/06/18 06:04:11;;;;;;;5.77;5.27;;;;;;;25.24;62.29;96183.28;5116288;28;20194;-56
2021/06/18 06:06:37;;;;;;;6.07;5.57;;;;;;;25.37;62.05;96170.72;5116340;28;20302;-55
2021/06/18 06:09:02;;;;;;;5.70;5.30;;;;;;;25.45;62.29;96183.41;5116503;28;20650;-56
2021/06/18 06:11:30;;;;;;;5.00;4.50;;;;;;;25.35;60.86;96189.09;5114114;28;20528;-55
2021/06/18 06:14:01;;;;;;;5.40;4.87;;;;;;;25.30;60.04;96187.38;5116183;28;20610;-56
2021/06/18 06:16:27;;;;;;;5.70;5.03;;;;;;;25.31;60.27;96188.94;5116301;28;20413;-56
2021/06/18 06:18:52;;;;;;;5.07;4.60;;;;;;;25.28;60.13;96186.13;5116031;28;20454;-56
2021/06/18 06:21:18;;;;;;;5.60;5.10;;;;;;;25.44;60.77;96181.81;5116008;28;20180;-58
2021/06/18 06:23:44;;;;;;;5.20;4.80;;;;;;;25.60;61.16;96177.44;5105687;28;20202;-58
2021/06/18 06:26:10;;;;;;;9.47;5.60;;;;;;;25.55;62.61;96182.22;5094525;28;20257;-55
2021/06/18 06:28:36;;;;;;;5.10;4.70;;;;;;;25.66;62.54;96186.91;5095635;28;20479;-56
2021/06/18 06:31:05;;;;;;;4.47;4.20;;;;;;;25.69;60.37;96188.19;5095662;28;20525;-57
2021/06/18 06:33:31;;;;;;;5.70;5.30;;;;;;;25.86;61.24;96185.34;5094892;28;20485;-57
2021/06/18 06:35:56;;;;;;;5.13;4.73;;;;;;;25.97;61.15;96192.75;5095346;28;20424;-56
2021/06/18 06:38:22;;;;;;;5.17;4.87;;;;;;;26.07;61.41;96189.69;5097954;28;20194;-56
2021/06/18 06:40:48;;;;;;;5.20;4.80;;;;;;;26.14;60.96;96195.31;5095258;28;20186;-56
2021/06/18 06:43:14;;;;;;;5.37;4.97;;;;;;;26.22;61.33;96196.38;5094758;28;20193;-56
2021/06/18 06:45:39;;;;;;;6.93;5.50;;;;;;;26.25;62.53;96196.50;5095363;28;20491;-56
2021/06/18 06:48:05;;;;;;;6.17;4.60;;;;;;;26.25;62.02;96201.13;5107151;28;20173;-57
2021/06/18 06:50:31;;;;;;;5.57;5.10;;;;;;;26.30;60.88;96192.84;5115625;28;20182;-56
2021/06/18 06:52:56;;;;;;;4.87;4.57;;;;;;;26.33;60.52;96192.97;5114365;28;20223;-59
2021/06/18 06:55:21;;;;;;;5.90;5.40;;;;;;;26.37;61.03;96187.72;5115407;28;20293;-56
2021/06/18 06:57:47;;;;;;;5.13;4.50;;;;;;;26.40;60.65;96192.44;5115172;28;20208;-57
2021/06/18 07:00:13;;;;;;;5.40;4.90;;;;;;;26.41;60.67;96194.03;5114155;28;20197;-57
2021/06/18 07:02:39;;;;;;;5.90;5.30;;;;;;;26.47;59.81;96192.69;5114676;28;20177;-57
2021/06/18 07:05:05;;;;;;;5.40;5.00;;;;;;;26.50;59.55;96189.34;5114889;28;20450;-57
2021/06/18 07:07:30;;;;;;;4.77;4.47;;;;;;;26.54;59.39;96190.25;5107491;28;20177;-57
2021/06/18 07:09:56;;;;;;;5.10;4.70;;;;;;;26.61;59.95;96192.41;5107146;28;20408;-57
2021/06/18 07:12:21;;;;;;;4.33;4.13;;;;;;;26.64;60.45;96191.75;5097817;28;20174;-56
2021/06/18 07:14:48;;;;;;;5.50;5.10;;;;;;;26.63;61.52;96185.56;5107085;28;20202;-56
2021/06/18 07:17:13;;;;;;;5.20;4.70;;;;;;;26.69;62.17;96195.03;5115147;28;20173;-57
2021/06/18 07:19:39;;;;;;;5.40;5.00;;;;;;;26.63;61.69;96193.66;5095285;28;20455;-59
2021/06/18 07:22:04;;;;;;;5.60;5.20;;;;;;;26.71;60.22;96194.72;5093713;28;20170;-58
2021/06/18 07:24:30;;;;;;;5.50;5.10;;;;;;;26.77;59.97;96190.69;5099615;28;20326;-58
2021/06/18 07:26:56;;;;;;;5.60;5.20;;;;;;;26.83;60.16;96190.13;5114836;28;20268;-58
2021/06/18 07:29:22;;;;;;;4.80;4.50;;;;;;;26.88;60.47;96195.34;5115127;28;20498;-58
2021/06/18 07:31:47;;;;;;;5.37;4.87;;;;;;;26.87;59.54;96188.34;5094972;28;20535;-57
2021/06/18 07:34:13;;;;;;;5.30;4.90;;;;;;;26.95;59.56;96197.47;5107431;28;20193;-56
2021/06/18 07:36:38;;;;;;;5.67;5.10;;;;;;;27.03;58.91;96192.00;5101853;28;20184;-57
2021/06/18 07:39:05;;;;;;;5.10;4.70;;;;;;;27.12;59.31;96198.06;5090638;28;20814;-56
2021/06/18 07:41:31;;;;;;;5.20;4.80;;;;;;;27.15;58.91;96202.81;5090532;28;20181;-56
2021/06/18 07:43:56;;;;;;;8.60;5.50;;;;;;;27.10;57.06;96202.25;5091327;28;20966;-56
2021/06/18 07:46:23;;;;;;;5.83;5.10;;;;;;;27.05;56.71;96199.78;5110364;28;20440;-56
2021/06/18 07:48:49;;;;;;;7.20;5.37;;;;;;;27.19;56.71;96203.75;5110537;28;20631;-57
2021/06/18 07:51:15;;;;;;;5.37;4.97;;;;;;;27.31;57.63;96203.78;5110801;28;20494;-57
2021/06/18 07:53:40;;;;;;;5.60;5.20;;;;;;;27.38;56.97;96206.69;5110539;28;20201;-56
2021/06/18 07:56:07;;;;;;;6.17;5.57;;;;;;;27.47;56.19;96203.88;5110619;28;20180;-56
2021/06/18 07:58:32;;;;;;;6.20;5.60;;;;;;;27.56;56.00;96198.41;5110127;28;20209;-56
2021/06/18 08:00:58;;;;;;;5.30;4.90;;;;;;;27.63;56.20;96193.97;5108753;28;20427;-56
2021/06/18 08:03:24;;;;;;;5.47;5.03;;;;;;;27.71;56.37;96189.59;5110209;28;20299;-56
2021/06/18 08:05:49;;;;;;;5.43;5.03;;;;;;;27.78;56.71;96182.50;5110614;28;20194;-56
2021/06/18 08:08:14;;;;;;;5.57;5.17;;;;;;;27.84;56.36;96180.34;5110539;28;20262;-56
2021/06/18 08:10:40;;;;;;;5.80;5.40;;;;;;;27.89;55.51;96178.22;5110200;28;20225;-56
2021/06/18 08:13:05;;;;;;;4.80;4.50;;;;;;;27.96;55.26;96188.47;5107393;28;20224;-55
2021/06/18 08:15:31;;;;;;;6.30;5.70;;;;;;;28.02;55.19;96187.91;5094357;28;20319;-57
2021/06/18 08:17:58;;;;;;;6.73;6.00;;;;;;;28.02;54.39;96185.22;5110093;28;20226;-58
2021/06/18 08:20:25;;;;;;;6.00;5.60;;;;;;;28.13;54.56;96188.22;5110572;28;20181;-57
2021/06/18 08:22:51;;;;;;;6.67;6.17;;;;;;;28.21;54.17;96188.06;5109520;28;20416;-58
2021/06/18 08:25:17;;;;;;;6.40;5.80;;;;;;;28.26;56.78;96190.53;5110619;28;20430;-57
2021/06/18 08:27:42;;;;;;;6.07;5.57;;;;;;;28.32;55.52;96182.97;5110302;28;20889;-58
2021/06/18 08:30:08;;;;;;;5.70;5.20;;;;;;;28.43;54.78;96189.47;5109621;28;20197;-58
2021/06/18 08:32:34;;;;;;;6.43;5.97;;;;;;;28.24;53.85;96173.88;5109640;28;20639;-58
2021/06/18 08:34:59;;;;;;;7.47;6.43;;;;;;;28.38;53.38;96185.09;5109174;28;20450;-58
2021/06/18 08:37:24;;;;;;;6.40;5.90;;;;;;;28.50;54.14;96186.97;5110478;28;20169;-57
2021/06/18 08:39:50;;;;;;;8.50;6.67;;;;;;;28.61;54.13;96184.59;5096556;28;20240;-57
2021/06/18 08:42:16;;;;;;;7.97;6.07;;;;;;;28.68;53.88;96182.84;5089624;28;20169;-56
2021/06/18 08:44:45;;;;;;;7.83;7.17;;;;;;;28.78;53.67;96179.66;5090417;28;20217;-57
2021/06/18 08:47:10;;;;;;;6.90;6.40;;;;;;;28.82;53.60;96175.13;5109580;28;20177;-57
2021/06/18 08:49:36;;;;;;;6.47;5.90;;;;;;;28.92;52.97;96184.66;5098993;28;20427;-59
2021/06/18 08:52:02;;;;;;;7.30;6.80;;;;;;;28.93;52.64;96186.25;5108512;28;20177;-56
2021/06/18 08:54:41;;;;;;;7.80;6.60;;;;;;;28.98;53.85;96173.22;5110193;28;20225;-62
2021/06/18 08:57:18;;;;;;;7.60;6.90;;;;;;;29.03;54.02;96178.38;5099809;28;20173;-60
2021/06/18 08:59:46;;;;;;;6.70;6.00;;;;;;;29.15;53.80;96172.16;5091405;28;20487;-55
2021/06/18 09:02:13;;;;;;;6.47;5.97;;;;;;;29.25;52.56;96175.13;5109154;28;20422;-56
2021/06/18 09:05:11;;;;;;;8.13;7.53;;;;;;;29.27;52.62;96178.25;5089644;28;20430;-57
2021/06/18 09:07:58;;;;;;;6.30;5.80;;;;;;;29.33;53.13;96182.25;5102026;28;20430;-58
2021/06/18 09:10:32;;;;;;;7.67;6.87;;;;;;;29.35;53.92;96177.28;5099695;28;20953;-58
2021/06/18 09:13:14;;;;;;;7.40;6.90;;;;;;;29.48;53.77;96179.94;5098294;28;20462;-59
2021/06/18 09:15:52;;;;;;;8.80;7.10;;;;;;;29.52;51.79;96181.56;5100773;28;20421;-61
2021/06/18 09:18:39;;;;;;;7.50;6.87;;;;;;;29.66;52.24;96179.19;5097520;28;20763;-60
2021/06/18 09:21:10;;;;;;;8.67;7.87;;;;;;;29.65;51.57;96180.34;5098208;28;20503;-59
2021/06/18 09:23:47;;;;;;;13.70;8.70;;;;;;;29.73;51.83;96176.66;5100495;28;20796;-60
2021/06/18 09:26:22;;;;;;;7.40;6.80;;;;;;;29.87;52.47;96171.59;5098440;28;20450;-61
2021/06/18 09:29:13;;;;;;;8.43;7.77;;;;;;;29.98;52.36;96180.75;5107878;28;20403;-58
2021/06/18 09:32:00;;;;;;;7.27;6.77;;;;;;;30.05;51.27;96171.97;5100424;28;20493;-59
2021/06/18 09:35:00;;;;;;;8.07;7.27;;;;;;;30.13;50.96;96176.41;5088687;28;20442;-58
2021/06/18 09:37:39;;;;;;;9.97;7.10;;;;;;;30.25;49.42;96176.28;5101917;28;20444;-58
2021/06/18 09:40:12;;;;;;;6.70;6.10;;;;;;;30.38;50.31;96166.88;5105819;28;20491;-58
2021/06/18 09:42:51;;;;;;;6.93;6.27;;;;;;;30.47;50.19;96174.81;5089228;28;20416;-59
2021/06/18 09:45:19;;;;;;;8.30;7.50;;;;;;;30.55;51.11;96165.69;5090713;28;20404;-58
2021/06/18 09:47:45;;;;;;;7.70;7.00;;;;;;;30.66;49.42;96169.34;5093110;28;20414;-59
2021/06/18 09:50:13;;;;;;;8.57;7.90;;;;;;;30.73;49.24;96161.38;5096608;28;20482;-60
2021/06/18 09:52:40;;;;;;;6.87;6.40;;;;;;;30.83;49.53;96164.31;5112746;28;20161;-57
2021/06/18 09:55:07;;;;;;;7.87;7.27;;;;;;;30.96;49.08;96164.94;5110879;28;20442;-58
2021/06/18 09:57:42;;;;;;;7.90;7.17;;;;;;;31.08;48.98;96164.75;5095409;28;20463;-58
2021/06/18 10:00:16;;;;;;;7.80;7.10;;;;;;;30.90;46.85;96156.28;5092586;28;21125;-60
2021/06/18 10:02:46;;;;;;;7.20;6.70;;;;;;;31.02;47.21;96166.19;5092561;28;20400;-60
2021/06/18 10:05:15;;;;;;;6.93;6.43;;;;;;;31.15;46.51;96162.16;5092592;28;20401;-58
2021/06/18 10:07:41;;;;;;;6.40;6.00;;;;;;;31.28;47.03;96158.91;5106089;28;20404;-56
2021/06/18 10:10:11;;;;;;;7.00;6.30;;;;;;;31.21;43.54;96160.72;5111562;28;20412;-57
2021/06/18 10:12:37;;;;;;;7.30;6.60;;;;;;;31.36;44.32;96164.47;5112610;28;20460;-57
2021/06/18 10:15:06;;;;;;;6.83;6.37;;;;;;;31.55;45.32;96154.31;5112954;28;21036;-57
2021/06/18 10:17:42;;;;;;;6.90;6.40;;;;;;;31.70;45.04;96158.81;5112951;28;20180;-55
2021/06/18 10:20:11;;;;;;;7.10;6.50;;;;;;;31.84;45.21;96150.84;5112646;28;20450;-57
2021/06/18 10:22:45;;;;;;;6.83;6.20;;;;;;;32.00;44.97;96153.41;5110782;28;20407;-55
2021/06/18 10:25:14;;;;;;;6.60;6.10;;;;;;;32.14;43.73;96148.19;5092387;28;20408;-57
2021/06/18 10:27:48;;;;;;;7.37;6.73;;;;;;;32.18;44.48;96149.00;5110516;28;20480;-57
2021/06/18 10:30:29;;;;;;;6.87;6.33;;;;;;;32.22;41.92;96149.84;5112397;28;20403;-57
2021/06/18 10:32:57;;;;;;;6.20;5.80;;;;;;;32.31;41.42;96144.91;5110727;28;20415;-57
2021/06/18 10:35:40;;;;;;;5.40;5.00;;;;;;;32.33;38.33;96148.81;5112374;28;20781;-55
2021/06/18 10:38:12;;;;;;;5.83;5.30;;;;;;;32.55;40.85;96152.59;5108106;28;20506;-57
2021/06/18 10:40:45;;;;;;;5.93;5.43;;;;;;;32.71;41.73;96152.38;5109887;28;20789;-57
2021/06/18 10:43:14;;;;;;;5.87;5.37;;;;;;;32.87;41.28;96148.28;5092507;28;20444;-57
2021/06/18 10:45:57;;;;;;;5.93;5.43;;;;;;;33.00;40.62;96146.88;5111240;28;20499;-54
2021/06/18 10:48:51;;;;;;;5.40;5.00;;;;;;;33.08;39.54;96148.50;5112541;28;20425;-59
2021/06/18 10:51:25;;;;;;;5.40;4.90;;;;;;;33.19;38.56;96145.91;5112103;28;20487;-56
2021/06/18 10:53:54;;;;;;;4.53;4.20;;;;;;;33.22;36.49;96142.41;5111415;28;21272;-56
2021/06/18 10:56:19;;;;;;;4.33;3.93;;;;;;;33.30;35.09;96144.06;5100629;28;20511;-58
2021/06/18 10:59:04;;;;;;;4.63;4.23;;;;;;;32.99;30.68;96133.66;5104969;28;20542;-59
2021/06/18 11:01:31;;;;;;;5.40;4.90;;;;;;;33.11;33.31;96138.81;5105224;28;20197;-57
2021/06/18 11:03:58;;;;;;;5.20;4.70;;;;;;;33.28;34.97;96135.47;5111701;28;20465;-57
2021/06/18 11:06:45;;;;;;;5.57;5.13;;;;;;;33.50;36.31;96131.75;5103308;28;20410;-58
2021/06/18 11:09:12;;;;;;;5.53;5.03;;;;;;;33.56;35.32;96132.19;5110303;28;20427;-56
2021/06/18 11:11:37;;;;;;;6.00;5.60;;;;;;;33.51;36.75;96132.53;5111311;28;20419;-57
2021/06/18 11:14:08;;;;;;;8.70;5.43;;;;;;;33.45;35.36;96128.63;5111613;28;20432;-58
2021/06/18 11:16:40;;;;;;;5.27;4.90;;;;;;;33.14;33.42;96129.88;5105634;28;20255;-59
2021/06/18 11:19:26;;;;;;;5.57;5.07;;;;;;;33.24;34.63;96131.91;5107816;28;20958;-58
2021/06/18 11:21:53;;;;;;;5.37;4.87;;;;;;;33.39;35.49;96125.44;5111006;28;20411;-56
2021/06/18 11:24:33;;;;;;;5.70;5.10;;;;;;;33.49;34.73;96129.41;5111367;28;20423;-59
2021/06/18 11:27:21;;;;;;;4.17;3.97;;;;;;;33.51;31.37;96127.88;5111304;28;20391;-59
2021/06/18 11:29:46;;;;;;;4.93;4.40;;;;;;;33.54;33.41;96123.63;5111302;28;21085;-57
2021/06/18 11:32:40;;;;;;;4.33;4.03;;;;;;;33.30;30.67;96131.19;5110237;28;20419;-58
2021/06/18 11:35:33;;;;;;;4.53;4.23;;;;;;;33.49;32.37;96140.31;5090243;28;20285;-58
2021/06/18 11:38:17;;;;;;;5.00;4.60;;;;;;;33.67;32.43;96127.59;5090710;28;20510;-57
2021/06/18 11:40:44;;;;;;;4.90;4.50;;;;;;;33.78;32.09;96126.50;5090725;28;20428;-57
2021/06/18 11:43:11;;;;;;;4.33;4.03;;;;;;;33.85;34.77;96132.00;5101117;28;20435;-58